Airfield :
LOGIN :

Register | Disclaimer

   EN    FR    IT 

 










Legend :    VFR   Marginal VFR   IFR   Intensive IFR   Very Intensive IFR
Visi :
Ceiling :
>= 8 km
>= 3000ft
5 to 8 km
1000 to 3000 ft
1500m to 5 km
500 to 1000 ft
800 to 1500m
200 to 500 ft
< 800m
< 200 ft
Symbols :   Thunderstorms  Fog  Heavy snow  Heavy precipitations  Wind > 20 kt
SIGMETs :     Misc.  Thunderstorms  Icing  Turbulence  Mountain Waves  Volcanic Ashes






- Airport Elevation : 645 ft
- IATA code : DLE


LFGJ - Dole Tavaux

CURRENT METAR :
  • 231400Z AUTO 21016KT CAVOK 17/04 Q1027 TEMPO 22015G25KT

EXPIRED METARs :
  • 231330Z AUTO 21017KT CAVOK 17/04 Q1027 TEMPO 22015G25KT
  • 231300Z AUTO 22016KT CAVOK 16/01 Q1028 TEMPO 22015G25KT
  • 231230Z AUTO 21017KT CAVOK 16/01 Q1028 TEMPO 22015G25KT
  • 231200Z AUTO 20014KT CAVOK 15/02 Q1028 TEMPO 22015G25KT
  • 231130Z AUTO 20016KT CAVOK 14/02 Q1029 TEMPO 22015G25KT
  • 231100Z AUTO 21017KT CAVOK 13/03 Q1029 NOSIG

TAF TAF LFGJ
Valid from the 23 at 12:00 until the 23 at 21:00 UTC


231100Z 2312/2321 21015KT CAVOK
TEMPO 2312/2315 22015G25KT



MET'MAP, your aeronautical weather chart ! - Copyright ORBIFLY December 2007 - Disclaimer

ORBIFLY MET'MAP TEAM :

Programming & Development : Alexandra Zaïnal
Concept & original design : Baudouin d'Aumeries
Assistance for programming : Marc-Olivier Méhu
Technical & hardware support : Manuel Goepfert

Contact : metmap@orbifly.com




SOURCES & CREDITS :

   NOAA